Flight Track Log - Related Links

Times and Time Zones

All times are in EDT time to prevent confusion due to time zone crossing. See the WJA349 flight status page for this flight to view local times or setup timezone preferences in your user account.

Time Position Orientation Groundspeed Altitude Reporting Facility
EDT Latitude Longitude Course Direction KTS MPH feet Rate Location/Type
Sun 10:03:42 AM 50.6667 -120.3667 90° East 160 184 3,100  Level Vancouver Center
Sun 10:04:42 AM 50.6667 -120.3000 90° East 170 196 5,200 2,200 Climbing Vancouver Center
Sun 10:05:42 AM 50.6500 -120.2167 107° East 220 253 7,500 2,650 Climbing Vancouver Center
Sun 10:06:42 AM 50.6667 -120.0833 79° East 270 311 10,500 2,800 Climbing Vancouver Center
Sun 10:07:42 AM 50.6667 -119.9500 90° East 320 368 13,100 3,050 Climbing Vancouver Center
Sun 10:08:42 AM 50.6500 -119.8000 100° East 350 403 16,600 3,350 Climbing Vancouver Center
Sun 10:09:42 AM 50.6500 -119.6333 90° East 360 414 19,800 2,964 Climbing Vancouver Center
Sun 10:11:28 AM 50.6333 -119.3167 95° East 400 460 24,800 2,675 Climbing Vancouver Center
Sun 10:12:28 AM 50.6333 -119.1333 90° East 410 472 27,200 2,300 Climbing Vancouver Center
Sun 10:13:28 AM 50.6167 -118.9500 98° East 420 483 29,400 2,150 Climbing Vancouver Center
Sun 10:14:28 AM 50.6333 -118.7667 82° East 430 495 31,500 2,150 Climbing Vancouver Center
Sun 10:15:28 AM 50.6167 -118.5667 97° East 440 506 33,700 1,750 Climbing Vancouver Center
Sun 10:16:28 AM 50.6167 -118.3833 90° East 440 506 35,000 650 Climbing Vancouver Center
Sun 10:17:28 AM 50.6000 -118.1833 97° East 430 495 35,000  Level Vancouver Center
Sun 10:18:26 AM 50.5833 -118.0833 105° East 430 495 35,000  Level Edmonton Center
Sun 10:19:26 AM 50.5833 -117.8667 90° East 430 495 35,000  Level Edmonton Center
Sun 10:20:28 AM 50.6000 -117.6167 84° East 430 495 35,000  Level Vancouver Center
Sun 10:21:28 AM 50.5833 -117.4333 98° East 430 495 35,000  Level Vancouver Center
Sun 10:22:28 AM 50.5667 -117.2500 98° East 430 495 35,000  Level Vancouver Center
Sun 10:23:28 AM 50.5667 -117.0667 90° East 440 506 35,000  Level Vancouver Center
Sun 10:24:26 AM 50.5333 -116.9500 114° Southeast 430 495 35,000  Level Edmonton Center
Sun 10:25:28 AM 50.5333 -116.6667 90° East 440 506 35,000  Level Vancouver Center
Sun 10:26:28 AM 50.5333 -116.4833 90° East 440 506 35,000 -750 Level Vancouver Center
Sun 10:27:28 AM 50.5167 -116.2833 97° East 430 495 33,500 -1,800 Descending Vancouver Center
Sun 10:28:28 AM 50.5500 -116.1167 72° East 430 495 31,400 -2,034 Descending Vancouver Center
Sun 10:29:26 AM 50.5833 -116.0167 62° Northeast 410 472 29,500 -1,881 Descending Edmonton Center
Sun 10:30:26 AM 50.6167 -115.8667 71° East 400 460 27,700 -1,900 Descending Edmonton Center
Sun 10:31:26 AM 50.6500 -115.6833 74° East 390 449 25,700 -1,850 Descending Edmonton Center
Sun 10:32:26 AM 50.7000 -115.5333 62° Northeast 370 426 24,000 -1,750 Descending Edmonton Center
Sun 10:33:26 AM 50.7333 -115.3833 71° East 360 414 22,200 -1,750 Descending Edmonton Center
Sun 10:34:26 AM 50.7500 -115.2500 79° East 350 403 20,500 -1,750 Descending Edmonton Center
Sun 10:35:26 AM 50.8000 -115.1000 62° Northeast 340 391 18,700 -1,600 Descending Edmonton Center
Sun 10:36:26 AM 50.8333 -114.9833 66° East 340 391 17,300 -1,500 Descending Edmonton Center
Sun 10:37:26 AM 50.8667 -114.8500 68° East 330 380 15,700 -1,700 Descending Edmonton Center
Sun 10:38:26 AM 50.9000 -114.7000 71° East 320 368 13,900 -1,650 Descending Edmonton Center
Sun 10:39:26 AM 50.9167 -114.5667 79° East 310 357 12,400 -1,550 Descending Edmonton Center
Sun 10:40:26 AM 50.9667 -114.4333 59° Northeast 300 345 10,800 -1,300 Descending Edmonton Center
Sun 10:41:26 AM 51.0000 -114.3167 66° East 290 334 9,800 -1,200 Descending Edmonton Center
Sun 10:42:26 AM 51.0000 -114.2000 90° East 280 322 8,400 -1,000 Descending Edmonton Center
Sun 10:43:26 AM 51.0000 -114.0667 90° East 260 299 7,800 -650 Descending Edmonton Center
Sun 10:44:26 AM 50.9667 -113.9833 122° Southeast 220 253 7,100 -850 Descending Edmonton Center
Sun 10:45:26 AM 51.0000 -113.9000 58° Northeast 190 219 6,100 -950 Descending Edmonton Center
Sun 10:46:26 AM 51.0500 -113.9167 348° North 130 150 5,200 -750 Descending Edmonton Center
Sun 10:47:26 AM 51.0667 -113.9500 309° West 130 150 4,600 -650 Descending Edmonton Center
Sun 10:48:26 AM 51.0667 -114.0000 270° West 130 150 3,900 -550 Descending Edmonton Center
Sun 10:49:26 AM 51.1000 -114.0667 309° West 130 150 3,500 -400 Descending Edmonton Center

Login

Don't have an account? Register now (free) for customized features, flight alerts, and more!